Flight Track Log - Related Links

Times and Time Zones

All times are in EDT time to prevent confusion due to time zone crossing. See the DAL2021 flight status page for this flight to view local times or setup timezone preferences in your user account.

Time Position Orientation Groundspeed Altitude Reporting Facility
EDT Latitude Longitude Course Direction KTS MPH feet Rate Location/Type
Wed 04:02:56 PM 42.2053 -83.3536 231° Southwest 150 173 1,400  Level FAA TRACON SMA TRACON (SMA)
Wed 04:03:36 PM 42.1825 -83.3922 231° Southwest 208 239 2,400 2,475 Climbing FAA TRACON SMA TRACON (SMA)
Wed 04:04:16 PM 42.1564 -83.4356 259° West 218 251 4,700 2,925 Climbing FAA TRACON SMA TRACON (SMA)
Wed 04:04:56 PM 42.1486 -83.4875 296° West 244 281 6,300 2,775 Climbing FAA TRACON SMA TRACON (SMA)
Wed 04:05:36 PM 42.1703 -83.5464 295° West 258 297 8,400 2,700 Climbing FAA TRACON SMA TRACON (SMA)
Wed 04:06:16 PM 42.1900 -83.6042 298° West 266 306 9,900 1,291 Climbing FAA TRACON SMA TRACON (SMA)
Wed 04:06:55 PM 42.2144 -83.6669 299° West 316 364 10,100 1,519 Climbing FAA TRACON SMA TRACON (SMA)
Wed 04:07:35 PM 42.2450 -83.7417 299° West 335 386 11,900 2,634 Climbing FAA TRACON SMA TRACON (SMA)
Wed 04:08:17 PM 42.2750 -83.8147 299° West 342 394 13,700 2,593 Climbing FAA TRACON SMA TRACON (SMA)
Wed 04:08:56 PM 42.3067 -83.8933 299° West 347 399 15,400 2,810 Climbing FAA TRACON SMA TRACON (SMA)
Wed 04:09:36 PM 42.3383 -83.9719 298° West 353 406 17,400 3,600 Climbing FAA TRACON SMA TRACON (SMA)
Wed 04:10:16 PM 42.3667 -84.0428 298° West 331 381 20,200 3,825 Climbing FAA TRACON SMA TRACON (SMA)
Wed 04:10:56 PM 42.3933 -84.1094 298° West 289 333 22,500 2,074 Climbing FAA TRACON SMA TRACON (SMA)
Wed 04:11:37 PM 42.4200 -84.1772 279° West 304 350 23,000 975 Climbing FAA TRACON SMA TRACON (SMA)
Wed 04:12:16 PM 42.4292 -84.2528 272° West 322 371 23,800 1,655 Climbing FAA TRACON SMA TRACON (SMA)
Wed 04:13:04 PM 42.4314 -84.3617 273° West 316 364 25,400 1,833 Climbing Cleveland Center
Wed 04:14:04 PM 42.4356 -84.4911 272° West 335 386 27,100 1,600 Climbing Cleveland Center
Wed 04:15:04 PM 42.4394 -84.6181 272° West 347 399 28,600 1,389 Climbing Cleveland Center
Wed 04:15:39 PM 42.4411 -84.6786 270° West 348 400 29,300 1,453 Climbing Chicago Center
Wed 04:16:39 PM 42.4403 -84.8167 274° West 362 417 30,900 1,350 Climbing Chicago Center
Wed 04:17:39 PM 42.4475 -84.9483 272° West 362 417 32,000 600 Climbing Chicago Center
Wed 04:18:39 PM 42.4506 -85.0861 271° West 367 422 32,100 700 Climbing Chicago Center
Wed 04:19:39 PM 42.4525 -85.2492 272° West 378 435 33,400 1,400 Climbing Chicago Center
Wed 04:20:39 PM 42.4553 -85.3928 272° West 383 441 34,900 1,400 Climbing Chicago Center
Wed 04:21:39 PM 42.4581 -85.5333 270° West 383 441 36,200 1,250 Climbing Chicago Center
Wed 04:22:39 PM 42.4583 -85.6711 271° West 383 441 37,400 800 Climbing Chicago Center
Wed 04:23:39 PM 42.4606 -85.8092 271° West 383 441 37,800 300 Climbing Chicago Center
Wed 04:24:39 PM 42.4625 -85.9383 271° West 383 441 38,000 100 Climbing Chicago Center
Wed 04:25:39 PM 42.4644 -86.0819 263° West 383 441 38,000  Level Chicago Center
Wed 04:26:39 PM 42.4519 -86.2261 259° West 383 441 38,000  Level Chicago Center
Wed 04:27:39 PM 42.4325 -86.3650 262° West 389 448 38,000  Level Chicago Center
Wed 04:28:39 PM 42.4175 -86.5119 260° West 389 448 38,000  Level Chicago Center
Wed 04:29:39 PM 42.3983 -86.6619 259° West 389 448 38,000  Level Chicago Center
Wed 04:30:39 PM 42.3803 -86.7864 260° West 389 448 38,000  Level Chicago Center
Wed 04:31:39 PM 42.3625 -86.9275 260° West 389 448 38,000  Level Chicago Center
Wed 04:32:39 PM 42.3444 -87.0686 260° West 384 442 38,000  Level Chicago Center
Wed 04:33:39 PM 42.3264 -87.2097 259° West 384 442 38,000  Level Chicago Center
Wed 04:34:39 PM 42.3061 -87.3508 260° West 389 448 38,000  Level Chicago Center
Wed 04:35:39 PM 42.2856 -87.5058 259° West 394 453 38,000  Level Chicago Center
Wed 04:36:39 PM 42.2650 -87.6467 260° West 394 453 38,000  Level Chicago Center
Wed 04:37:39 PM 42.2461 -87.7875 259° West 377 434 38,000  Level Chicago Center
Wed 04:38:39 PM 42.2250 -87.9311 250° West 388 447 38,000  Level Chicago Center
Wed 04:39:39 PM 42.1892 -88.0664 249° West 393 452 38,000  Level Chicago Center
Wed 04:40:39 PM 42.1489 -88.2072 250° West 399 459 38,000  Level Chicago Center
Wed 04:41:39 PM 42.1125 -88.3422 248° West 399 459 38,000  Level Chicago Center
Wed 04:42:39 PM 42.0700 -88.4828 249° West 399 459 38,000  Level Chicago Center
Wed 04:43:39 PM 42.0314 -88.6203 249° West 399 459 38,000  Level Chicago Center
Wed 04:44:39 PM 41.9925 -88.7547 249° West 394 453 38,000  Level Chicago Center
Wed 04:45:39 PM 41.9536 -88.8892 248° West 394 453 38,000  Level Chicago Center
Wed 04:46:39 PM 41.9122 -89.0233 248° West 394 453 38,000  Level Chicago Center
Wed 04:47:39 PM 41.8731 -89.1547 248° West 394 453 38,000  Level Chicago Center
Wed 04:48:39 PM 41.8356 -89.2775 248° West 394 453 38,000  Level Chicago Center
Wed 04:49:39 PM 41.7939 -89.4139 250° West 394 453 38,000  Level Chicago Center
Wed 04:50:39 PM 41.7564 -89.5503 247° West 394 453 38,000  Level Chicago Center
Wed 04:51:39 PM 41.7142 -89.6836 250° West 388 447 38,000  Level Chicago Center
Wed 04:52:39 PM 41.6764 -89.8197 247° West 388 447 38,000  Level Chicago Center
Wed 04:53:39 PM 41.6339 -89.9528 247° West 393 452 38,000  Level Chicago Center
Wed 04:54:39 PM 41.5914 -90.0883 248° West 393 452 38,000  Level Chicago Center
Wed 04:55:39 PM 41.5508 -90.2211 247° West 393 452 38,000  Level Chicago Center
Wed 04:56:39 PM 41.5081 -90.3564 248° West 393 452 38,000  Level Chicago Center
Wed 04:57:39 PM 41.4672 -90.4889 247° West 393 452 38,000  Level Chicago Center
Wed 04:58:39 PM 41.4242 -90.6264 249° West 393 452 38,000  Level Chicago Center
Wed 04:59:39 PM 41.3850 -90.7614 246° West 393 452 38,000  Level Chicago Center
Wed 05:00:39 PM 41.3394 -90.8986 247° West 393 452 38,000  Level Chicago Center
Wed 05:01:39 PM 41.2958 -91.0358 247° West 393 452 38,000  Level Chicago Center
Wed 05:02:39 PM 41.2519 -91.1728 246° West 393 452 38,000  Level Chicago Center
Wed 05:03:39 PM 41.2081 -91.3067 247° West 393 452 38,000  Level Chicago Center
Wed 05:04:39 PM 41.1639 -91.4461 247° West 398 458 38,000  Level Chicago Center
Wed 05:05:39 PM 41.1219 -91.5772 245° Southwest 398 458 38,000  Level Chicago Center
Wed 05:06:39 PM 41.0733 -91.7131 247° West 398 458 38,000  Level Chicago Center
Wed 05:07:39 PM 41.0286 -91.8492 248° West 398 458 38,000  Level Chicago Center
Wed 05:08:39 PM 40.9861 -91.9853 246° West 398 458 38,000  Level Chicago Center
Wed 05:09:39 PM 40.9411 -92.1181 246° West 404 465 38,000  Level Chicago Center
Wed 05:10:39 PM 40.8961 -92.2508 246° West 404 465 38,000  Level Chicago Center
Wed 05:11:39 PM 40.8511 -92.3861 246° West 404 465 38,000  Level Chicago Center
Wed 05:12:39 PM 40.8011 -92.5347 246° West 404 465 38,000  Level Chicago Center
Wed 05:15:06 PM 40.6906 -92.8647 245° Southwest 391 450 38,000  Level Kansas City Center
Wed 05:16:06 PM 40.6483 -92.9861 246° West 404 465 38,000  Level Kansas City Center
Wed 05:17:07 PM 40.6022 -93.1208 245° Southwest 404 465 38,000  Level Kansas City Center
Wed 05:18:07 PM 40.5536 -93.2583 246° West 404 465 38,000  Level Kansas City Center
Wed 05:19:06 PM 40.5092 -93.3900 244° Southwest 404 465 38,000  Level Kansas City Center
Wed 05:20:06 PM 40.4603 -93.5244 247° West 404 465 38,000  Level Kansas City Center
Wed 05:21:07 PM 40.4175 -93.6586 244° Southwest 404 465 38,000  Level Kansas City Center
Wed 05:22:06 PM 40.3664 -93.7953 246° West 404 465 38,000  Level Kansas City Center
Wed 05:23:06 PM 40.3214 -93.9292 244° Southwest 404 465 38,000  Level Kansas City Center
Wed 05:24:07 PM 40.2697 -94.0656 245° Southwest 410 472 38,000  Level Kansas City Center
Wed 05:25:07 PM 40.2181 -94.2097 246° West 403 464 38,000  Level Kansas City Center
Wed 05:26:06 PM 40.1767 -94.3294 246° West 403 464 38,000  Level Kansas City Center
Wed 05:27:06 PM 40.1311 -94.4653 242° Southwest 403 464 38,000  Level Kansas City Center
Wed 05:28:06 PM 40.0747 -94.6036 245° Southwest 409 471 38,000  Level Kansas City Center
Wed 05:29:06 PM 40.0267 -94.7389 247° West 403 464 38,000  Level Kansas City Center
Wed 05:30:06 PM 39.9867 -94.8606 242° Southwest 403 464 38,000  Level Kansas City Center
Wed 05:31:07 PM 39.9300 -95.0011 245° Southwest 402 463 38,000  Level Kansas City Center
Wed 05:32:06 PM 39.8836 -95.1333 244° Southwest 402 463 38,000  Level Kansas City Center
Wed 05:33:07 PM 39.8350 -95.2653 244° Southwest 402 463 38,000  Level Kansas City Center
Wed 05:34:06 PM 39.7903 -95.3864 245° Southwest 408 470 38,000  Level Kansas City Center
Wed 05:35:06 PM 39.7372 -95.5314 245° Southwest 408 470 38,000  Level Kansas City Center
Wed 05:36:07 PM 39.6881 -95.6656 244° Southwest 408 470 38,000  Level Kansas City Center
Wed 05:37:06 PM 39.6431 -95.7833 243° Southwest 408 470 38,000  Level Kansas City Center
Wed 05:38:07 PM 39.5914 -95.9172 244° Southwest 408 470 38,000  Level Kansas City Center
Wed 05:39:07 PM 39.5356 -96.0642 244° Southwest 417 480 38,000  Level Kansas City Center
Wed 05:40:07 PM 39.4858 -96.1947 243° Southwest 417 480 38,000  Level Kansas City Center
Wed 05:41:07 PM 39.4339 -96.3253 244° Southwest 417 480 38,000  Level Kansas City Center
Wed 05:42:07 PM 39.3883 -96.4450 244° Southwest 417 480 38,000  Level Kansas City Center
Wed 05:43:07 PM 39.3381 -96.5778 244° Southwest 417 480 38,000  Level Kansas City Center
Wed 05:44:07 PM 39.2833 -96.7236 243° Southwest 417 480 38,000  Level Kansas City Center
Wed 05:45:07 PM 39.2353 -96.8456 244° Southwest 422 486 38,000  Level Kansas City Center
Wed 05:46:07 PM 39.1822 -96.9883 241° Southwest 410 472 38,000  Level Kansas City Center
Wed 05:47:07 PM 39.1275 -97.1150 244° Southwest 400 460 38,000  Level Kansas City Center
Wed 05:48:06 PM 39.0789 -97.2417 243° Southwest 400 460 38,000  Level Kansas City Center
Wed 05:49:07 PM 39.0278 -97.3706 243° Southwest 405 466 38,000  Level Kansas City Center
Wed 05:50:07 PM 38.9789 -97.4914 243° Southwest 410 472 38,000  Level Kansas City Center
Wed 05:51:07 PM 38.9278 -97.6228 248° West 415 478 38,000  Level Kansas City Center
Wed 05:52:07 PM 38.8822 -97.7675 248° West 415 478 38,000  Level Kansas City Center
Wed 05:53:07 PM 38.8433 -97.8911 249° West 408 470 38,000  Level Kansas City Center
Wed 05:54:07 PM 38.8039 -98.0253 248° West 408 470 38,000  Level Kansas City Center
Wed 05:55:07 PM 38.7625 -98.1564 248° West 408 470 38,000  Level Kansas City Center
Wed 05:56:06 PM 38.7208 -98.2872 248° West 408 470 38,000  Level Kansas City Center
Wed 05:57:07 PM 38.6792 -98.4183 247° West 403 464 38,000  Level Kansas City Center
Wed 05:58:07 PM 38.6375 -98.5461 250° West 403 464 38,000  Level Kansas City Center
Wed 05:59:07 PM 38.5994 -98.6769 247° West 403 464 38,000  Level Kansas City Center
Wed 06:00:07 PM 38.5575 -98.8019 249° West 392 451 38,000  Level Kansas City Center
Wed 06:01:07 PM 38.5197 -98.9247 247° West 392 451 38,000  Level Kansas City Center
Wed 06:02:06 PM 38.4775 -99.0494 248° West 386 444 38,000  Level Kansas City Center
Wed 06:03:06 PM 38.4372 -99.1742 248° West 386 444 38,000  Level Kansas City Center
Wed 06:04:07 PM 38.3967 -99.3014 247° West 391 450 38,000  Level Kansas City Center
Wed 06:05:07 PM 38.3542 -99.4286 247° West 391 450 38,000  Level Kansas City Center
Wed 06:06:07 PM 38.3108 -99.5606 248° West 383 441 38,000  Level Kansas City Center
Wed 06:07:07 PM 38.2700 -99.6875 247° West 383 441 38,000  Level Kansas City Center
Wed 06:08:07 PM 38.2292 -99.8114 248° West 388 447 38,000  Level Kansas City Center
Wed 06:09:07 PM 38.1928 -99.9253 246° West 388 447 38,000  Level Kansas City Center
Wed 06:10:07 PM 38.1447 -100.0617 247° West 388 447 38,000  Level Kansas City Center
Wed 06:11:07 PM 38.1033 -100.1878 247° West 388 447 38,000  Level Kansas City Center
Wed 06:12:07 PM 38.0644 -100.3036 247° West 388 447 38,000  Level Kansas City Center
Wed 06:13:06 PM 38.0228 -100.4269 247° West 388 447 38,000  Level Kansas City Center
Wed 06:14:07 PM 37.9764 -100.5656 246° West 388 447 38,000  Level Kansas City Center
Wed 06:15:07 PM 37.9322 -100.6911 249° West 388 447 38,000  Level Kansas City Center
Wed 06:16:07 PM 37.8972 -100.8042 248° West 388 447 38,000  Level Kansas City Center
Wed 06:17:07 PM 37.8522 -100.9450 247° West 388 447 38,000  Level Kansas City Center
Wed 06:18:07 PM 37.8097 -101.0728 247° West 394 453 38,000 200 Level Kansas City Center
Wed 06:19:07 PM 37.7722 -101.1850 247° West 394 453 38,400 700 Climbing Kansas City Center
Wed 06:20:07 PM 37.7269 -101.3203 248° West 383 441 39,400 800 Climbing Kansas City Center
Wed 06:21:07 PM 37.6864 -101.4453 247° West 383 441 40,000 300 Climbing Kansas City Center
Wed 06:22:07 PM 37.6483 -101.5597 247° West 383 441 40,000  Level Kansas City Center
Wed 06:23:41 PM 37.5781 -101.7694 246° West 403 464 40,000  Level Albuquerque Center
Wed 06:24:41 PM 37.5394 -101.8797 248° West 397 457 40,000  Level Albuquerque Center
Wed 06:25:41 PM 37.4936 -102.0192 247° West 392 451 40,000  Level Albuquerque Center
Wed 06:26:41 PM 37.4511 -102.1450 247° West 384 442 40,000  Level Albuquerque Center
Wed 06:27:41 PM 37.4106 -102.2681 246° West 384 442 40,000  Level Albuquerque Center
Wed 06:28:41 PM 37.3714 -102.3806 249° West 389 448 40,000  Level Albuquerque Center
Wed 06:29:41 PM 37.3328 -102.5058 246° West 384 442 40,000  Level Albuquerque Center
Wed 06:30:41 PM 37.2839 -102.6447 247° West 384 442 40,000  Level Albuquerque Center
Wed 06:31:41 PM 37.2408 -102.7700 248° West 384 442 40,000  Level Albuquerque Center
Wed 06:32:41 PM 37.1997 -102.8950 246° West 384 442 40,000  Level Albuquerque Center
Wed 06:33:41 PM 37.1600 -103.0094 246° West 389 448 40,000  Level Albuquerque Center
Wed 06:34:41 PM 37.1108 -103.1475 246° West 389 448 40,000  Level Albuquerque Center
Wed 06:35:41 PM 37.0653 -103.2750 246° West 394 453 40,000  Level Albuquerque Center
Wed 06:36:41 PM 37.0214 -103.3994 247° West 394 453 40,000  Level Albuquerque Center
Wed 06:37:41 PM 36.9833 -103.5133 246° West 394 453 40,000  Level Albuquerque Center
Wed 06:38:41 PM 36.9333 -103.6508 246° West 399 459 40,000  Level Albuquerque Center
Wed 06:39:41 PM 36.8892 -103.7775 246° West 399 459 40,000  Level Albuquerque Center
Wed 06:40:41 PM 36.8450 -103.9017 245° Southwest 399 459 40,000  Level Albuquerque Center
Wed 06:41:41 PM 36.8042 -104.0125 246° West 399 459 40,000  Level Albuquerque Center
Wed 06:42:41 PM 36.7597 -104.1389 245° Southwest 399 459 40,000  Level Albuquerque Center
Wed 06:43:41 PM 36.7092 -104.2756 246° West 399 459 40,000  Level Albuquerque Center
Wed 06:44:41 PM 36.6742 -104.3753 246° West 399 459 40,000  Level Albuquerque Center
Wed 06:45:41 PM 36.6253 -104.5119 245° Southwest 399 459 40,000  Level Albuquerque Center
Wed 06:46:41 PM 36.5800 -104.6325 247° West 399 459 40,000  Level Albuquerque Center
Wed 06:47:41 PM 36.5331 -104.7686 244° Southwest 394 453 40,000  Level Albuquerque Center
Wed 06:48:41 PM 36.4856 -104.8917 249° West 394 453 40,000  Level Albuquerque Center
Wed 06:49:41 PM 36.4503 -105.0036 247° West 389 448 40,000  Level Albuquerque Center
Wed 06:50:41 PM 36.4047 -105.1367 247° West 389 448 40,000  Level Albuquerque Center
Wed 06:51:41 PM 36.3611 -105.2644 247° West 389 448 40,000  Level Albuquerque Center
Wed 06:52:41 PM 36.3175 -105.3892 248° West 395 455 40,000  Level Albuquerque Center
Wed 06:53:41 PM 36.2756 -105.5164 248° West 400 460 40,000  Level Albuquerque Center
Wed 06:54:41 PM 36.2336 -105.6436 246° West 394 453 40,000  Level Albuquerque Center
Wed 06:55:41 PM 36.1875 -105.7733 248° West 406 467 40,000  Level Albuquerque Center
Wed 06:56:41 PM 36.1453 -105.9028 247° West 406 467 40,000  Level Albuquerque Center
Wed 06:57:41 PM 36.1008 -106.0294 247° West 410 472 40,000  Level Albuquerque Center
Wed 06:58:41 PM 36.0564 -106.1561 247° West 410 472 40,000  Level Albuquerque Center
Wed 06:59:41 PM 36.0136 -106.2828 246° West 399 459 40,000  Level Albuquerque Center
Wed 07:00:41 PM 35.9708 -106.4039 246° West 399 459 40,000  Level Albuquerque Center
Wed 07:01:41 PM 35.9281 -106.5250 247° West 399 459 40,000  Level Albuquerque Center
Wed 07:02:41 PM 35.8850 -106.6486 245° Southwest 394 453 40,000  Level Albuquerque Center
Wed 07:03:41 PM 35.8397 -106.7692 247° West 394 453 40,000  Level Albuquerque Center
Wed 07:04:41 PM 35.7986 -106.8875 247° West 394 453 40,000  Level Albuquerque Center
Wed 07:05:41 PM 35.7614 -106.9978 245° Southwest 389 448 40,000  Level Albuquerque Center
Wed 07:06:41 PM 35.7136 -107.1258 246° West 384 442 40,000  Level Albuquerque Center
Wed 07:07:41 PM 35.6719 -107.2436 246° West 379 436 40,000  Level Albuquerque Center
Wed 07:08:41 PM 35.6303 -107.3586 246° West 379 436 40,000  Level Albuquerque Center
Wed 07:09:41 PM 35.5928 -107.4633 247° West 379 436 40,000  Level Albuquerque Center
Wed 07:10:41 PM 35.5467 -107.5936 246° West 379 436 40,000  Level Albuquerque Center
Wed 07:11:41 PM 35.5047 -107.7083 246° West 379 436 40,000  Level Albuquerque Center
Wed 07:12:41 PM 35.4625 -107.8253 245° Southwest 379 436 40,000  Level Albuquerque Center
Wed 07:13:41 PM 35.4225 -107.9322 246° West 379 436 40,000  Level Albuquerque Center
Wed 07:14:41 PM 35.3781 -108.0567 245° Southwest 380 437 40,000  Level Albuquerque Center
Wed 07:15:41 PM 35.3333 -108.1733 245° Southwest 380 437 40,000  Level Albuquerque Center
Wed 07:16:41 PM 35.2886 -108.2900 246° West 380 437 40,000  Level Albuquerque Center
Wed 07:17:41 PM 35.2503 -108.3964 245° Southwest 380 437 40,000  Level Albuquerque Center
Wed 07:18:41 PM 35.2011 -108.5281 245° Southwest 380 437 40,000  Level Albuquerque Center
Wed 07:19:41 PM 35.1561 -108.6442 247° West 380 437 40,000  Level Albuquerque Center
Wed 07:20:41 PM 35.1131 -108.7653 245° Southwest 380 437 40,000 -250 Level Albuquerque Center
Wed 07:21:41 PM 35.0742 -108.8686 245° Southwest 385 443 39,500 -1,000 Descending Albuquerque Center
Wed 07:22:41 PM 35.0222 -109.0047 245° Southwest 385 443 38,000 -1,250 Descending Albuquerque Center
Wed 07:23:41 PM 34.9747 -109.1281 245° Southwest 397 457 37,000 -1,000 Descending Albuquerque Center
Wed 07:24:41 PM 34.9269 -109.2511 246° West 397 457 36,000 -500 Descending Albuquerque Center
Wed 07:25:41 PM 34.8831 -109.3717 247° West 413 475 36,000  Level Albuquerque Center
Wed 07:26:41 PM 34.8328 -109.5144 246° West 421 484 36,000  Level Albuquerque Center
Wed 07:27:41 PM 34.7867 -109.6397 246° West 416 479 36,000  Level Albuquerque Center
Wed 07:28:41 PM 34.7403 -109.7647 247° West 416 479 36,000  Level Albuquerque Center
Wed 07:29:41 PM 34.7003 -109.8775 245° Southwest 416 479 36,000  Level Albuquerque Center
Wed 07:30:41 PM 34.6472 -110.0144 246° West 411 473 36,000  Level Albuquerque Center
Wed 07:31:41 PM 34.6008 -110.1392 245° Southwest 416 479 36,000  Level Albuquerque Center
Wed 07:32:41 PM 34.5539 -110.2636 245° Southwest 416 479 36,000 -1,000 Level Albuquerque Center
Wed 07:33:41 PM 34.5114 -110.3756 248° West 411 473 34,000 -2,350 Descending Albuquerque Center
Wed 07:34:41 PM 34.4664 -110.5075 245° Southwest 421 484 31,300 -2,550 Descending Albuquerque Center
Wed 07:35:41 PM 34.4192 -110.6317 246° West 421 484 28,900 -2,400 Descending Albuquerque Center
Wed 07:36:41 PM 34.3697 -110.7656 233° Southwest 410 472 26,500 -2,400 Descending Albuquerque Center
Wed 07:37:41 PM 34.3061 -110.8683 225° Southwest 393 452 24,100 -2,350 Descending Albuquerque Center
Wed 07:38:41 PM 34.2325 -110.9583 227° Southwest 388 447 21,800 -2,050 Descending Albuquerque Center
Wed 07:39:41 PM 34.1783 -111.0286 227° Southwest 377 434 20,000 -1,650 Descending Albuquerque Center
Wed 07:40:41 PM 34.1022 -111.1256 227° Southwest 347 399 18,500 -1,700 Descending Albuquerque Center
Wed 07:41:41 PM 34.0433 -111.2006 227° Southwest 322 371 16,600 -1,700 Descending Albuquerque Center
Wed 07:42:41 PM 33.9889 -111.2708 227° Southwest 317 365 15,100 -1,700 Descending Albuquerque Center
Wed 07:43:41 PM 33.9300 -111.3481 222° Southwest 317 365 13,200 -1,632 Descending Albuquerque Center
Wed 07:44:35 PM 33.8667 -111.4167 212° Southwest 303 349 12,000 -1,316 Descending Phoenix TRACON
Wed 07:45:35 PM 33.8000 -111.4667 220° Southwest 291 335 10,700 -1,050 Descending Phoenix TRACON
Wed 07:46:35 PM 33.7333 -111.5333 212° Southwest 291 335 9,900 -750 Descending Phoenix TRACON
Wed 07:47:35 PM 33.6667 -111.5833 220° Southwest 270 311 9,200 -850 Descending Phoenix TRACON
Wed 07:48:35 PM 33.6167 -111.6333 220° Southwest 251 289 8,200 -1,100 Descending Phoenix TRACON
Wed 07:49:35 PM 33.5667 -111.6833 220° Southwest 245 282 7,000 -1,250 Descending Phoenix TRACON
Wed 07:50:35 PM 33.5167 -111.7333 239° Southwest 226 260 5,700 -1,190 Descending Phoenix TRACON
Wed 07:51:36 PM 33.4833 -111.8000 231° Southwest 222 255 4,600 -1,140 Descending Phoenix TRACON
Wed 07:52:36 PM 33.4500 -111.8500 248° West 184 212 3,400 -1,000 Descending Phoenix TRACON
Wed 07:53:36 PM 33.4333 -111.9000 270° West 167 192 2,600 -750 Descending Phoenix TRACON
Wed 07:54:36 PM 33.4333 -111.9500 270° West 138 159 1,900 -700 Descending Phoenix TRACON

Login

Don't have an account? Register now (free) for customized features, flight alerts, and more!